createdAt,value
2023-06-12T00:02:11.079Z,100896.00
2023-06-12T00:04:39.063Z,100903.06
2023-06-12T00:07:07.706Z,100892.84
2023-06-12T00:09:37.057Z,100892.94
2023-06-12T00:12:05.776Z,100900.84
2023-06-12T00:14:33.785Z,100900.09
2023-06-12T00:17:01.827Z,100898.47
2023-06-12T00:19:29.865Z,100888.28
2023-06-12T00:21:57.963Z,100889.25
2023-06-12T00:24:26.120Z,100892.88
2023-06-12T00:26:55.466Z,100893.88
2023-06-12T00:29:23.472Z,100896.59
2023-06-12T00:31:51.689Z,100894.13
2023-06-12T00:34:19.609Z,100889.84
2023-06-12T00:36:48.591Z,100899.50
2023-06-12T00:39:16.512Z,100894.41
2023-06-12T00:41:44.440Z,100893.56
2023-06-12T00:44:13.690Z,100899.63
2023-06-12T00:46:41.891Z,100890.19
2023-06-12T00:49:10.012Z,100900.66
2023-06-12T00:51:38.002Z,100897.31
2023-06-12T00:54:06.071Z,100901.72
2023-06-12T00:56:34.171Z,100899.22
2023-06-12T00:59:02.152Z,100905.31
2023-06-12T01:01:31.599Z,100904.50
2023-06-12T01:04:00.060Z,100899.38
2023-06-12T01:06:35.606Z,100897.69
2023-06-12T01:09:11.825Z,100901.19
2023-06-12T01:11:41.344Z,100905.56
2023-06-12T01:14:09.721Z,100896.94
2023-06-12T01:16:42.097Z,100893.53
2023-06-12T01:19:10.962Z,100897.03
2023-06-12T01:21:41.420Z,100899.63
2023-06-12T01:24:31.357Z,100890.22
2023-06-12T01:27:16.646Z,100903.22
2023-06-12T01:30:21.756Z,100911.94
2023-06-12T01:32:52.385Z,100913.84
2023-06-12T01:35:25.403Z,100907.06
2023-06-12T01:37:57.482Z,100909.72
2023-06-12T01:40:30.085Z,100907.19
2023-06-12T01:42:58.311Z,100907.19
2023-06-12T01:45:26.996Z,100913.34
2023-06-12T01:47:56.698Z,100919.50
2023-06-12T01:50:24.761Z,100907.50
2023-06-12T01:52:52.652Z,100913.59
2023-06-12T01:55:22.647Z,100914.44
2023-06-12T01:57:51.251Z,100914.50
2023-06-12T02:00:19.967Z,100911.13
2023-06-12T02:02:48.437Z,100912.91
2023-06-12T02:05:17.766Z,100922.47
2023-06-12T02:07:45.687Z,100919.94
2023-06-12T02:10:14.146Z,100919.97
2023-06-12T02:12:44.707Z,100920.09
2023-06-12T02:15:13.981Z,100919.25
2023-06-12T02:17:42.683Z,100919.28
2023-06-12T02:20:11.347Z,100927.06
2023-06-12T02:22:40.877Z,100919.28
2023-06-12T02:25:09.452Z,100921.03
2023-06-12T02:27:37.437Z,100918.44
2023-06-12T02:30:06.209Z,100920.97
2023-06-12T02:32:36.722Z,100919.28
2023-06-12T02:35:12.004Z,100923.59
2023-06-12T02:37:41.374Z,100926.16
2023-06-12T02:40:10.712Z,100927.97
2023-06-12T02:42:38.929Z,100928.88
2023-06-12T02:45:08.030Z,100922.13
2023-06-12T02:47:36.162Z,100934.97
2023-06-12T02:50:04.220Z,100940.97
2023-06-12T02:52:32.529Z,100940.13
2023-06-12T02:55:01.807Z,100933.22
2023-06-12T02:57:29.825Z,100945.31
2023-06-12T02:59:57.799Z,100937.56
2023-06-12T03:02:25.876Z,100936.78
2023-06-12T03:04:55.143Z,100931.66
2023-06-12T03:07:23.142Z,100935.16
2023-06-12T03:09:51.146Z,100930.06
2023-06-12T03:12:20.507Z,100937.84
2023-06-12T03:14:49.234Z,100939.59
2023-06-12T03:17:17.262Z,100943.94
2023-06-12T03:19:46.158Z,100946.53
2023-06-12T03:22:14.136Z,100949.09
2023-06-12T03:24:42.116Z,100952.59
2023-06-12T03:27:10.916Z,100950.81
2023-06-12T03:29:40.383Z,100955.13
2023-06-12T03:32:09.727Z,100957.78
2023-06-12T03:34:37.698Z,100958.63
2023-06-12T03:37:06.154Z,100964.75
2023-06-12T03:39:34.261Z,100965.66
2023-06-12T03:42:02.351Z,100956.16
2023-06-12T03:44:30.390Z,100960.47
2023-06-12T03:47:00.020Z,100967.41
2023-06-12T03:49:28.277Z,100960.47
2023-06-12T03:51:56.744Z,100962.19
2023-06-12T03:54:24.727Z,100970.84
2023-06-12T03:56:52.711Z,100962.25
2023-06-12T03:59:20.870Z,100963.97
2023-06-12T04:01:49.878Z,100958.78
2023-06-12T04:04:19.524Z,100966.47
2023-06-12T04:06:48.123Z,100959.53
2023-06-12T04:09:17.104Z,100957.81
2023-06-12T04:11:45.165Z,100956.94
2023-06-12T04:14:13.122Z,100961.22
2023-06-12T04:16:41.219Z,100970.63
2023-06-12T04:19:10.065Z,100971.38
2023-06-12T04:21:39.423Z,100962.59
2023-06-12T04:24:17.004Z,100961.63
2023-06-12T04:26:47.603Z,100964.03
2023-06-12T04:29:16.506Z,100963.81
2023-06-12T04:31:45.173Z,100958.38
2023-06-12T04:34:17.460Z,100969.34
2023-06-12T04:36:47.037Z,100963.06
2023-06-12T04:39:15.473Z,100957.59
2023-06-12T04:41:43.697Z,100965.97
2023-06-12T04:44:12.490Z,100962.34
2023-06-12T04:46:40.844Z,100965.47
2023-06-12T04:49:10.191Z,100963.50
2023-06-12T04:51:39.884Z,100970.94
2023-06-12T04:54:11.084Z,100967.16
2023-06-12T04:56:41.645Z,100966.03
2023-06-12T04:59:12.001Z,100969.22
2023-06-12T05:01:40.612Z,100967.97
2023-06-12T05:04:09.206Z,100975.50
2023-06-12T05:06:40.518Z,100965.50
2023-06-12T05:09:09.899Z,100960.63
2023-06-12T05:11:37.942Z,100957.28
2023-06-12T05:14:05.838Z,100957.94
2023-06-12T05:16:33.956Z,100964.84
2023-06-12T05:19:02.026Z,100956.09
2023-06-12T05:21:30.009Z,100961.75
2023-06-12T05:23:58.001Z,100955.47
2023-06-12T05:26:28.413Z,100951.94
2023-06-12T05:28:56.455Z,100938.72
2023-06-12T05:31:24.652Z,100941.41
2023-06-12T05:33:52.744Z,100940.84
2023-06-12T05:36:21.124Z,100933.28
2023-06-12T05:38:49.652Z,100942.81
2023-06-12T05:41:18.104Z,100931.00
2023-06-12T05:43:48.258Z,100934.00
2023-06-12T05:46:16.690Z,100925.69
2023-06-12T05:48:44.793Z,100928.72
2023-06-12T05:51:12.896Z,100928.78
2023-06-12T05:53:40.971Z,100919.66
2023-06-12T05:56:10.948Z,100913.22
2023-06-12T05:58:39.198Z,100923.22
2023-06-12T06:01:10.494Z,100922.09
2023-06-12T06:03:43.868Z,100921.59
2023-06-12T06:06:14.259Z,100921.84
2023-06-12T06:08:42.432Z,100925.03
2023-06-12T06:11:10.868Z,100924.31
2023-06-12T06:13:38.902Z,100921.72
2023-06-12T06:16:10.670Z,100926.97
2023-06-12T06:18:39.158Z,100920.19
2023-06-12T06:21:07.352Z,100921.13
2023-06-12T06:23:36.446Z,100917.88
2023-06-12T06:26:04.775Z,100918.94
2023-06-12T06:28:32.734Z,100922.34
2023-06-12T06:31:01.601Z,100920.34
2023-06-12T06:33:30.886Z,100915.97
2023-06-12T06:35:58.960Z,100922.06
2023-06-12T06:38:27.307Z,100921.75
2023-06-12T06:40:55.579Z,100927.63
2023-06-12T06:43:24.081Z,100929.59
2023-06-12T06:45:52.298Z,100912.81
2023-06-12T06:48:20.281Z,100924.56
2023-06-12T06:50:49.763Z,100926.19
2023-06-12T06:53:17.840Z,100925.19
2023-06-12T06:55:46.137Z,100924.00
2023-06-12T06:58:14.249Z,100920.91
2023-06-12T07:00:42.222Z,100917.19
2023-06-12T07:03:11.132Z,100914.78
2023-06-12T07:05:39.375Z,100914.78
2023-06-12T07:08:09.632Z,100915.56
2023-06-12T07:10:38.317Z,100912.75
2023-06-12T07:13:06.268Z,100909.59
2023-06-12T07:15:34.754Z,100902.72
2023-06-12T07:18:02.995Z,100916.34
2023-06-12T07:20:31.040Z,100911.91
2023-06-12T07:22:59.017Z,100890.34
2023-06-12T07:25:28.844Z,100913.84
2023-06-12T07:27:56.811Z,100911.50
2023-06-12T07:30:24.976Z,100904.44
2023-06-12T07:32:53.077Z,100911.59
2023-06-12T07:35:21.340Z,100909.31
2023-06-12T07:37:51.386Z,100902.03
2023-06-12T07:40:19.533Z,100906.16
2023-06-12T07:42:49.840Z,100911.75
2023-06-12T07:45:17.859Z,100910.78
2023-06-12T07:47:47.369Z,100907.66
2023-06-12T07:50:15.471Z,100917.97
2023-06-12T07:52:43.660Z,100908.81
2023-06-12T07:55:12.128Z,100914.41
2023-06-12T07:57:40.327Z,100923.31
2023-06-12T08:00:11.317Z,100913.00
2023-06-12T08:02:40.288Z,100917.47
2023-06-12T08:05:09.413Z,100918.53
2023-06-12T08:07:37.695Z,100915.69
2023-06-12T08:10:08.763Z,100921.56
2023-06-12T08:12:37.000Z,100912.47
2023-06-12T08:15:05.670Z,100910.22
2023-06-12T08:17:36.469Z,100910.63
2023-06-12T08:20:06.684Z,100897.59
2023-06-12T08:22:34.613Z,100904.22
2023-06-12T08:25:02.692Z,100905.28
2023-06-12T08:27:30.610Z,100902.03
2023-06-12T08:29:58.622Z,100901.47
2023-06-12T08:32:26.581Z,100895.25
2023-06-12T08:34:57.108Z,100899.50
2023-06-12T08:37:25.137Z,100903.06
2023-06-12T08:39:53.194Z,100899.44
2023-06-12T08:42:22.846Z,100900.63
2023-06-12T08:44:57.155Z,100894.72
2023-06-12T08:47:36.288Z,100889.97
2023-06-12T08:50:07.259Z,100897.38
2023-06-12T08:52:35.884Z,100891.63
2023-06-12T08:55:05.151Z,100896.94
2023-06-12T08:57:33.342Z,100892.38
2023-06-12T09:00:01.298Z,100891.41
2023-06-12T09:02:30.757Z,100893.31
2023-06-12T09:05:03.924Z,100890.00
2023-06-12T09:07:38.760Z,100891.41
2023-06-12T09:10:14.439Z,100901.44
2023-06-12T09:12:44.832Z,100899.00
2023-06-12T09:15:18.865Z,100894.41
2023-06-12T09:17:49.259Z,100892.81
2023-06-12T09:20:28.840Z,100888.34
2023-06-12T09:23:06.581Z,100892.31
2023-06-12T09:25:38.974Z,100890.53
2023-06-12T09:28:08.509Z,100888.34
2023-06-12T09:30:40.930Z,100877.91
2023-06-12T09:33:09.844Z,100881.22
2023-06-12T09:35:51.588Z,100894.03
2023-06-12T09:38:29.781Z,100880.91
2023-06-12T09:40:59.110Z,100878.00
2023-06-12T09:43:29.859Z,100881.78
2023-06-12T09:45:58.813Z,100874.13
2023-06-12T09:48:33.905Z,100866.75
2023-06-12T09:51:07.136Z,100865.13
2023-06-12T09:53:41.245Z,100869.59
2023-06-12T09:56:10.974Z,100864.09
2023-06-12T09:58:40.773Z,100863.91
2023-06-12T10:01:09.834Z,100867.75
2023-06-12T10:03:40.896Z,100873.44
2023-06-12T10:06:10.684Z,100863.19
2023-06-12T10:08:41.626Z,100863.25
2023-06-12T10:11:10.574Z,100847.75
2023-06-12T10:13:39.436Z,100853.91
2023-06-12T10:16:08.984Z,100850.38
2023-06-12T10:18:37.354Z,100837.88
2023-06-12T10:21:08.777Z,100853.25
2023-06-12T10:23:39.837Z,100834.72
2023-06-12T10:26:08.463Z,100826.16
2023-06-12T10:28:37.196Z,100818.56
2023-06-12T10:31:15.392Z,100824.50
2023-06-12T10:34:09.078Z,100826.66
2023-06-12T10:36:43.114Z,100822.66
2023-06-12T10:39:25.516Z,100829.66
2023-06-12T10:41:55.833Z,100815.06
2023-06-12T10:44:37.708Z,100814.84
2023-06-12T10:47:07.060Z,100812.22
2023-06-12T10:49:59.724Z,100808.94
2023-06-12T10:52:28.498Z,100812.69
2023-06-12T10:55:32.429Z,100811.06
2023-06-12T10:58:01.835Z,100792.06
2023-06-12T11:00:33.089Z,100805.16
2023-06-12T11:03:02.740Z,100800.09
2023-06-12T11:05:32.323Z,100800.81
2023-06-12T11:08:02.105Z,100799.66
2023-06-12T11:10:32.837Z,100794.00
2023-06-12T11:13:01.612Z,100785.38
2023-06-12T11:15:30.299Z,100774.47
2023-06-12T11:17:58.304Z,100776.38
2023-06-12T11:20:26.463Z,100787.59
2023-06-12T11:23:02.089Z,100775.88
2023-06-12T11:25:34.286Z,100777.00
2023-06-12T11:28:03.928Z,100778.38
2023-06-12T11:30:34.140Z,100783.09
2023-06-12T11:33:08.739Z,100784.72
2023-06-12T11:35:41.799Z,100768.84
2023-06-12T11:40:43.428Z,100754.97
2023-06-12T11:43:11.818Z,100748.63
2023-06-12T11:45:43.139Z,100757.41
2023-06-12T11:50:47.729Z,100755.66
2023-06-12T11:53:17.161Z,100743.91
2023-06-12T11:58:22.544Z,100763.00
2023-06-12T12:00:53.099Z,100753.66
2023-06-12T12:03:22.572Z,100751.31
2023-06-12T12:05:52.810Z,100760.09
2023-06-12T12:08:27.154Z,100751.31
2023-06-12T12:10:56.813Z,100760.88
2023-06-12T12:13:24.960Z,100752.56
2023-06-12T12:15:53.016Z,100753.19
2023-06-12T12:18:21.886Z,100742.97
2023-06-12T12:20:51.005Z,100737.06
2023-06-12T12:23:19.626Z,100742.56
2023-06-12T12:25:50.090Z,100741.81
2023-06-12T12:28:19.730Z,100736.78
2023-06-12T12:30:47.819Z,100737.94
2023-06-12T12:33:16.268Z,100729.63
2023-06-12T12:35:44.530Z,100746.97
2023-06-12T12:38:12.606Z,100745.81
2023-06-12T12:40:40.733Z,100735.78
2023-06-12T12:43:08.831Z,100744.91
2023-06-12T12:45:38.275Z,100735.56
2023-06-12T12:48:07.047Z,100722.22
2023-06-12T12:50:41.703Z,100725.28
2023-06-12T12:53:16.440Z,100722.38
2023-06-12T12:55:44.709Z,100720.31
2023-06-12T12:58:18.291Z,100709.78
2023-06-12T13:00:50.758Z,100707.09
2023-06-12T13:03:19.104Z,100709.03
2023-06-12T13:05:47.496Z,100703.75
2023-06-12T13:08:15.700Z,100712.66
2023-06-12T13:10:44.453Z,100708.00
2023-06-12T13:13:15.453Z,100708.06
2023-06-12T13:15:44.101Z,100708.84
2023-06-12T13:18:13.777Z,100697.47
2023-06-12T13:20:41.814Z,100700.97
2023-06-12T13:23:10.031Z,100698.41
2023-06-12T13:25:39.800Z,100692.69
2023-06-12T13:28:07.878Z,100688.94
2023-06-12T13:30:36.018Z,100685.28
2023-06-12T13:33:04.659Z,100681.25
2023-06-12T13:35:36.052Z,100680.34
2023-06-12T13:38:06.737Z,100679.28
2023-06-12T13:40:34.836Z,100674.41
2023-06-12T13:43:03.284Z,100677.78
2023-06-12T13:45:33.214Z,100689.38
2023-06-12T13:48:03.985Z,100682.88
2023-06-12T13:50:33.688Z,100678.94
2023-06-12T13:53:01.738Z,100684.63
2023-06-12T13:55:29.726Z,100685.47
2023-06-12T13:57:57.937Z,100672.81
2023-06-12T14:00:27.897Z,100670.97
2023-06-12T14:02:56.130Z,100671.72
2023-06-12T14:05:24.261Z,100675.44
2023-06-12T14:07:53.876Z,100664.03
2023-06-12T14:10:22.528Z,100675.91
2023-06-12T14:12:50.977Z,100659.59
2023-06-12T14:15:20.990Z,100663.28
2023-06-12T14:17:49.270Z,100658.66
2023-06-12T14:20:17.912Z,100663.16
2023-06-12T14:22:46.350Z,100657.81
2023-06-12T14:25:16.136Z,100668.22
2023-06-12T14:27:44.396Z,100663.06
2023-06-12T14:30:15.001Z,100664.50
2023-06-12T14:32:43.110Z,100669.53
2023-06-12T14:35:11.438Z,100668.88
2023-06-12T14:37:39.653Z,100665.16
2023-06-12T14:40:09.416Z,100646.94
2023-06-12T14:42:39.431Z,100665.06
2023-06-12T14:45:09.367Z,100662.91
2023-06-12T14:47:37.391Z,100659.91
2023-06-12T14:50:06.325Z,100663.97
2023-06-12T14:52:34.683Z,100661.09
2023-06-12T14:55:03.538Z,100652.47
2023-06-12T14:57:31.622Z,100656.41
2023-06-12T15:00:00.911Z,100658.56
2023-06-12T15:02:28.878Z,100659.84
2023-06-12T15:04:57.095Z,100661.00
2023-06-12T15:07:25.413Z,100656.91
2023-06-12T15:09:53.406Z,100649.34
2023-06-12T15:12:21.450Z,100656.22
2023-06-12T15:14:49.644Z,100657.44
2023-06-12T15:17:19.318Z,100643.38
2023-06-12T15:19:47.751Z,100644.31
2023-06-12T15:22:15.859Z,100653.41
2023-06-12T15:24:43.961Z,100648.72
2023-06-12T15:27:12.349Z,100654.56
2023-06-12T15:29:40.720Z,100654.09
2023-06-12T15:32:09.564Z,100648.50
2023-06-12T15:34:38.953Z,100650.59
2023-06-12T15:37:07.068Z,100638.00
2023-06-12T15:39:34.995Z,100642.38
2023-06-12T15:42:05.352Z,100631.75
2023-06-12T15:44:34.150Z,100637.22
2023-06-12T15:47:02.302Z,100630.22
2023-06-12T15:49:30.586Z,100626.91
2023-06-12T15:52:00.205Z,100627.94
2023-06-12T15:54:28.741Z,100626.78
2023-06-12T15:56:56.925Z,100630.25
2023-06-12T15:59:25.174Z,100635.03
2023-06-12T16:01:59.609Z,100637.53
2023-06-12T16:04:28.498Z,100637.44
2023-06-12T16:06:56.911Z,100640.03
2023-06-12T16:09:26.601Z,100626.84
2023-06-12T16:11:54.626Z,100630.03
2023-06-12T16:14:22.655Z,100637.31
2023-06-12T16:16:51.035Z,100633.28
2023-06-12T16:19:19.291Z,100637.94
2023-06-12T16:21:47.684Z,100635.53
2023-06-12T16:24:15.873Z,100627.66
2023-06-12T16:26:45.491Z,100632.84
2023-06-12T16:29:13.564Z,100630.06
2023-06-12T16:31:41.943Z,100640.63
2023-06-12T16:34:10.072Z,100647.97
2023-06-12T16:36:38.287Z,100652.00
2023-06-12T16:39:06.545Z,100661.16
2023-06-12T16:41:35.461Z,100677.41
2023-06-12T16:44:04.985Z,100670.84
2023-06-12T16:46:33.035Z,100690.72
2023-06-12T16:49:01.197Z,100716.97
2023-06-12T16:51:30.923Z,100727.25
2023-06-12T16:54:00.147Z,100722.06
2023-06-12T16:56:28.729Z,100730.13
2023-06-12T16:58:57.185Z,100712.81
2023-06-12T17:01:26.623Z,100732.63
2023-06-12T17:03:54.979Z,100728.00
2023-06-12T17:06:24.106Z,100738.03
2023-06-12T17:08:52.238Z,100734.13
2023-06-12T17:11:20.844Z,100759.91
2023-06-12T17:13:48.908Z,100752.53
2023-06-12T17:16:16.982Z,100748.50
2023-06-12T17:18:47.832Z,100748.78
2023-06-12T17:21:16.579Z,100760.19
2023-06-12T17:23:44.685Z,100762.81
2023-06-12T17:26:13.347Z,100755.84
2023-06-12T17:28:41.409Z,100748.88
2023-06-12T17:31:11.608Z,100753.00
2023-06-12T17:33:41.056Z,100749.53
2023-06-12T17:36:10.603Z,100750.56
2023-06-12T17:38:38.553Z,100757.78
2023-06-12T17:41:06.640Z,100774.75
2023-06-12T17:43:34.698Z,100767.31
2023-06-12T17:46:03.485Z,100768.53
2023-06-12T17:48:31.982Z,100772.13
2023-06-12T17:51:02.668Z,100787.00
2023-06-12T17:53:32.199Z,100766.38
2023-06-12T17:56:00.298Z,100773.28
2023-06-12T17:58:28.278Z,100768.13
2023-06-12T18:00:57.181Z,100804.72
2023-06-12T18:03:25.229Z,100784.06
2023-06-12T18:05:53.231Z,100785.88
2023-06-12T18:08:21.280Z,100786.03
2023-06-12T18:10:50.912Z,100787.00
2023-06-12T18:13:19.365Z,100793.09
2023-06-12T18:15:47.582Z,100795.00
2023-06-12T18:18:18.131Z,100794.25
2023-06-12T18:20:46.242Z,100781.22
2023-06-12T18:23:14.274Z,100794.25
2023-06-12T18:25:42.210Z,100793.63
2023-06-12T18:28:11.760Z,100790.34
2023-06-12T18:30:39.917Z,100802.56
2023-06-12T18:33:07.857Z,100792.31
2023-06-12T18:35:36.930Z,100805.38
2023-06-12T18:38:05.526Z,100789.94
2023-06-12T18:40:33.969Z,100789.16
2023-06-12T18:43:02.132Z,100786.59
2023-06-12T18:45:31.500Z,100797.81
2023-06-12T18:47:59.646Z,100811.66
2023-06-12T18:50:27.810Z,100809.13
2023-06-12T18:52:56.094Z,100802.25
2023-06-12T18:55:24.075Z,100799.63
2023-06-12T18:57:52.129Z,100804.81
2023-06-12T19:00:21.357Z,100812.66
2023-06-12T19:02:54.070Z,100810.25
2023-06-12T19:05:22.588Z,100809.47
2023-06-12T19:07:50.865Z,100800.88
2023-06-12T19:10:18.994Z,100806.94
2023-06-12T19:12:46.955Z,100813.88
2023-06-12T19:15:15.309Z,100802.78
2023-06-12T19:17:43.661Z,100814.81
2023-06-12T19:20:14.460Z,100816.69
2023-06-12T19:22:46.419Z,100817.59
2023-06-12T19:25:14.672Z,100815.09
2023-06-12T19:27:42.890Z,100818.56
2023-06-12T19:30:11.721Z,100812.56
2023-06-12T19:32:44.611Z,100820.34
2023-06-12T19:35:15.337Z,100816.09
2023-06-12T19:37:44.326Z,100819.50
2023-06-12T19:40:13.358Z,100819.53
2023-06-12T19:42:41.424Z,100817.91
2023-06-12T19:45:10.341Z,100815.31
2023-06-12T19:47:38.538Z,100824.72
2023-06-12T19:50:07.908Z,100825.56
2023-06-12T19:52:39.255Z,100821.19
2023-06-12T19:55:10.135Z,100821.19
2023-06-12T19:57:38.384Z,100815.16
2023-06-12T20:00:07.509Z,100812.66
2023-06-12T20:02:35.755Z,100805.63
2023-06-12T20:05:04.200Z,100801.28
2023-06-12T20:07:32.207Z,100802.28
2023-06-12T20:10:04.531Z,100798.06
2023-06-12T20:12:33.445Z,100805.00
2023-06-12T20:15:02.789Z,100812.78
2023-06-12T20:17:31.207Z,100805.88
2023-06-12T20:19:59.593Z,100805.09
2023-06-12T20:22:27.830Z,100804.22
2023-06-12T20:24:56.385Z,100818.94
2023-06-12T20:27:25.932Z,100815.50
2023-06-12T20:29:56.162Z,100831.91
2023-06-12T20:32:24.274Z,100816.44
2023-06-12T20:34:52.355Z,100818.19
2023-06-12T20:37:20.758Z,100818.22
2023-06-12T20:39:49.618Z,100816.50
2023-06-12T20:42:17.577Z,100821.69
2023-06-12T20:44:47.046Z,100807.88
2023-06-12T20:47:15.201Z,100807.03
2023-06-12T20:49:43.175Z,100797.50
2023-06-12T20:52:11.561Z,100797.56
2023-06-12T20:54:39.520Z,100787.25
2023-06-12T20:57:09.308Z,100775.28
2023-06-12T20:59:37.817Z,100787.44
2023-06-12T21:02:07.752Z,100789.25
2023-06-12T21:04:36.510Z,100778.94
2023-06-12T21:07:04.938Z,100790.16
2023-06-12T21:09:34.262Z,100777.28
2023-06-12T21:12:03.118Z,100775.56
2023-06-12T21:14:31.169Z,100771.25
2023-06-12T21:17:00.044Z,100773.00
2023-06-12T21:19:30.011Z,100767.00
2023-06-12T21:21:58.105Z,100770.53
2023-06-12T21:24:26.613Z,100762.84
2023-06-12T21:26:55.879Z,100774.88
2023-06-12T21:29:24.231Z,100767.09
2023-06-12T21:31:54.956Z,100767.94
2023-06-12T21:34:23.591Z,100768.78
2023-06-12T21:36:53.718Z,100764.47
2023-06-12T21:39:24.551Z,100768.78
2023-06-12T21:41:52.815Z,100761.09
2023-06-12T21:44:21.209Z,100748.13
2023-06-12T21:46:49.288Z,100755.94
2023-06-12T21:49:17.516Z,100747.44
2023-06-12T21:51:46.111Z,100750.88
2023-06-12T21:54:15.642Z,100754.31
2023-06-12T21:56:44.295Z,100757.84
2023-06-12T21:59:13.875Z,100761.34
2023-06-12T22:01:42.065Z,100769.13
2023-06-12T22:04:10.256Z,100766.53
2023-06-12T22:06:39.753Z,100764.78
2023-06-12T22:09:08.017Z,100762.19
2023-06-12T22:11:37.624Z,100760.47
2023-06-12T22:14:05.841Z,100762.97
2023-06-12T22:16:34.098Z,100743.13
2023-06-12T22:19:03.261Z,100753.44
2023-06-12T22:21:32.383Z,100753.47
2023-06-12T22:24:00.576Z,100755.22
2023-06-12T22:26:29.746Z,100751.88
2023-06-12T22:28:59.392Z,100741.53
2023-06-12T22:31:27.680Z,100736.34
2023-06-12T22:33:55.909Z,100741.53
2023-06-12T22:36:24.122Z,100730.34
2023-06-12T22:38:52.342Z,100724.34
2023-06-12T22:41:20.525Z,100729.50
2023-06-12T22:43:48.835Z,100732.09
2023-06-12T22:46:18.589Z,100720.00
2023-06-12T22:48:46.830Z,100720.88
2023-06-12T22:51:15.097Z,100710.63
2023-06-12T22:53:43.197Z,100723.66
2023-06-12T22:56:11.486Z,100727.28
2023-06-12T22:58:39.768Z,100728.22
2023-06-12T23:01:07.942Z,100724.75
2023-06-12T23:03:37.505Z,100725.63
2023-06-12T23:06:06.563Z,100731.72
2023-06-12T23:08:34.766Z,100721.50
2023-06-12T23:11:02.854Z,100719.88
2023-06-12T23:13:30.982Z,100712.16
2023-06-12T23:15:59.235Z,100709.53
2023-06-12T23:18:31.490Z,100704.38
2023-06-12T23:21:03.134Z,100712.13
2023-06-12T23:23:33.817Z,100706.16
2023-06-12T23:26:03.761Z,100711.38
2023-06-12T23:28:34.459Z,100707.09
2023-06-12T23:31:03.841Z,100704.53
2023-06-12T23:33:32.479Z,100703.72
2023-06-12T23:36:02.261Z,100698.56
2023-06-12T23:38:30.382Z,100694.31
2023-06-12T23:40:58.519Z,100690.03
2023-06-12T23:43:27.808Z,100686.59
2023-06-12T23:45:55.946Z,100687.47
2023-06-12T23:48:24.066Z,100680.63
2023-06-12T23:50:52.358Z,100673.75
2023-06-12T23:53:22.975Z,100678.00
2023-06-12T23:55:51.234Z,100679.69
2023-06-12T23:58:19.339Z,100675.38
